OEBA/ABT METAR and TAF weather

Enter ICAO airport designator
Station Type Date Time Source
OEBA METAR 2020/09/23 02:00 UTC NOAA

OEBA 230200Z 09005KT CAVOK 23/10 Q1019 NOSIG


Station Type Date Time Source
OEBA Decoded METAR 2020/09/23 02:00 UTC NOAA

Al Baha, Saudi Arabia (OEBA) 20-18N 041-38E 1662M
Sep 22, 2020 - 10:00 PM EDT / 2020.09.23 0200 UTC
Wind: from the E (090 degrees) at 6 MPH (5 KT):0
Visibility: greater than 7 mile(s):0
Temperature: 73 F (23 C)
Dew Point: 50 F (10 C)
Relative Humidity: 43%
Pressure (altimeter): 30.09 in. Hg (1019 hPa)
ob: OEBA 230200Z 09005KT CAVOK 23/10 Q1019 NOSIG
cycle: 2

Station Type Date Time Source
OEBA TAF 2020/09/22 12:09 UTC NOAA

TAF OEBA 221100Z 2212/2318 36018KT 7000 NSC
TEMPO 2212/2218 4000 BLDU
BECMG 2218/2220 VRB03KT

Example: see airport list